sensor_id;sensor_type;location;lat;lon;timestamp;P1;durP1;ratioP1;P2;durP2;ratioP2
72939;SDS011;61094;51.154;13.570;2023-03-01T00:00:34;22.40;;;4.82;;
72939;SDS011;61094;51.154;13.570;2023-03-01T00:02:37;11.15;;;4.18;;
72939;SDS011;61094;51.154;13.570;2023-03-01T00:04:39;10.23;;;4.60;;
72939;SDS011;61094;51.154;13.570;2023-03-01T00:06:43;13.68;;;5.47;;
72939;SDS011;61094;51.154;13.570;2023-03-01T00:10:47;16.25;;;6.07;;
72939;SDS011;61094;51.154;13.570;2023-03-01T00:12:49;20.50;;;6.72;;
72939;SDS011;61094;51.154;13.570;2023-03-01T00:14:51;17.13;;;4.78;;
72939;SDS011;61094;51.154;13.570;2023-03-01T00:16:52;13.50;;;6.03;;
72939;SDS011;61094;51.154;13.570;2023-03-01T00:18:56;13.02;;;5.53;;
72939;SDS011;61094;51.154;13.570;2023-03-01T00:20:58;12.70;;;5.30;;
72939;SDS011;61094;51.154;13.570;2023-03-01T00:23:00;13.73;;;5.07;;
72939;SDS011;61094;51.154;13.570;2023-03-01T00:25:02;10.57;;;3.97;;
72939;SDS011;61094;51.154;13.570;2023-03-01T00:27:04;13.65;;;5.28;;
72939;SDS011;61094;51.154;13.570;2023-03-01T00:29:06;12.77;;;5.00;;
72939;SDS011;61094;51.154;13.570;2023-03-01T00:31:09;13.70;;;4.80;;
72939;SDS011;61094;51.154;13.570;2023-03-01T00:33:12;11.00;;;6.15;;
72939;SDS011;61094;51.154;13.570;2023-03-01T00:35:15;12.77;;;4.82;;
72939;SDS011;61094;51.154;13.570;2023-03-01T00:37:17;11.23;;;4.30;;
72939;SDS011;61094;51.154;13.570;2023-03-01T00:39:19;10.82;;;4.35;;
72939;SDS011;61094;51.154;13.570;2023-03-01T00:41:21;14.63;;;4.93;;
72939;SDS011;61094;51.154;13.570;2023-03-01T00:43:23;14.70;;;5.50;;
72939;SDS011;61094;51.154;13.570;2023-03-01T00:45:25;13.30;;;6.25;;
72939;SDS011;61094;51.154;13.570;2023-03-01T00:47:28;54.10;;;22.00;;
72939;SDS011;61094;51.154;13.570;2023-03-01T00:49:30;26.58;;;10.30;;
72939;SDS011;61094;51.154;13.570;2023-03-01T00:51:33;13.30;;;6.60;;
72939;SDS011;61094;51.154;13.570;2023-03-01T00:53:35;16.17;;;5.25;;
72939;SDS011;61094;51.154;13.570;2023-03-01T00:55:37;12.90;;;5.13;;
72939;SDS011;61094;51.154;13.570;2023-03-01T00:57:39;12.65;;;4.22;;
72939;SDS011;61094;51.154;13.570;2023-03-01T00:59:42;14.15;;;5.40;;
72939;SDS011;61094;51.154;13.570;2023-03-01T01:01:44;13.70;;;4.43;;
72939;SDS011;61094;51.154;13.570;2023-03-01T01:03:46;14.10;;;6.07;;
72939;SDS011;61094;51.154;13.570;2023-03-01T01:05:48;12.05;;;4.70;;
72939;SDS011;61094;51.154;13.570;2023-03-01T01:07:52;14.70;;;6.65;;
72939;SDS011;61094;51.154;13.570;2023-03-01T01:09:54;16.50;;;6.25;;
72939;SDS011;61094;51.154;13.570;2023-03-01T01:11:56;13.65;;;5.82;;
72939;SDS011;61094;51.154;13.570;2023-03-01T01:13:57;15.68;;;4.78;;
72939;SDS011;61094;51.154;13.570;2023-03-01T01:16:00;18.25;;;5.05;;
72939;SDS011;61094;51.154;13.570;2023-03-01T01:18:02;14.45;;;5.85;;
72939;SDS011;61094;51.154;13.570;2023-03-01T01:20:04;17.95;;;6.05;;
72939;SDS011;61094;51.154;13.570;2023-03-01T01:22:06;15.13;;;6.03;;
72939;SDS011;61094;51.154;13.570;2023-03-01T01:24:09;16.90;;;6.97;;
72939;SDS011;61094;51.154;13.570;2023-03-01T01:26:12;19.17;;;6.40;;
72939;SDS011;61094;51.154;13.570;2023-03-01T01:28:15;15.93;;;7.55;;
72939;SDS011;61094;51.154;13.570;2023-03-01T01:30:16;15.48;;;6.38;;
72939;SDS011;61094;51.154;13.570;2023-03-01T01:32:18;14.98;;;7.20;;
72939;SDS011;61094;51.154;13.570;2023-03-01T01:34:21;17.85;;;6.95;;
72939;SDS011;61094;51.154;13.570;2023-03-01T01:36:23;15.95;;;6.63;;
72939;SDS011;61094;51.154;13.570;2023-03-01T01:38:25;23.52;;;8.13;;
72939;SDS011;61094;51.154;13.570;2023-03-01T01:40:28;16.05;;;5.75;;
72939;SDS011;61094;51.154;13.570;2023-03-01T01:42:29;16.23;;;5.47;;
72939;SDS011;61094;51.154;13.570;2023-03-01T01:44:32;16.50;;;7.05;;
72939;SDS011;61094;51.154;13.570;2023-03-01T01:46:35;13.30;;;5.45;;
72939;SDS011;61094;51.154;13.570;2023-03-01T01:48:41;12.90;;;5.88;;
72939;SDS011;61094;51.154;13.570;2023-03-01T01:50:44;11.57;;;4.25;;
72939;SDS011;61094;51.154;13.570;2023-03-01T01:52:48;21.08;;;6.15;;
72939;SDS011;61094;51.154;13.570;2023-03-01T01:54:54;9.85;;;4.05;;
72939;SDS011;61094;51.154;13.570;2023-03-01T01:57:03;7.90;;;4.13;;
72939;SDS011;61094;51.154;13.570;2023-03-01T01:59:08;9.77;;;4.63;;
72939;SDS011;61094;51.154;13.570;2023-03-01T02:01:11;10.20;;;4.13;;
72939;SDS011;61094;51.154;13.570;2023-03-01T02:03:14;12.30;;;4.70;;
72939;SDS011;61094;51.154;13.570;2023-03-01T02:05:20;12.95;;;6.68;;
72939;SDS011;61094;51.154;13.570;2023-03-01T02:07:27;16.02;;;5.32;;
72939;SDS011;61094;51.154;13.570;2023-03-01T02:09:29;9.73;;;4.63;;
72939;SDS011;61094;51.154;13.570;2023-03-01T02:11:31;7.68;;;3.75;;
72939;SDS011;61094;51.154;13.570;2023-03-01T02:13:35;10.48;;;4.80;;
72939;SDS011;61094;51.154;13.570;2023-03-01T02:15:38;12.00;;;5.88;;
72939;SDS011;61094;51.154;13.570;2023-03-01T02:17:41;10.05;;;4.28;;
72939;SDS011;61094;51.154;13.570;2023-03-01T02:19:44;8.88;;;4.10;;
72939;SDS011;61094;51.154;13.570;2023-03-01T02:21:55;13.95;;;5.40;;
72939;SDS011;61094;51.154;13.570;2023-03-01T02:24:04;15.93;;;7.40;;
72939;SDS011;61094;51.154;13.570;2023-03-01T02:26:17;15.95;;;5.63;;
72939;SDS011;61094;51.154;13.570;2023-03-01T02:30:45;10.15;;;4.88;;
72939;SDS011;61094;51.154;13.570;2023-03-01T02:33:03;16.55;;;6.78;;
72939;SDS011;61094;51.154;13.570;2023-03-01T02:35:05;12.82;;;5.68;;
72939;SDS011;61094;51.154;13.570;2023-03-01T02:37:08;10.48;;;4.68;;
72939;SDS011;61094;51.154;13.570;2023-03-01T02:39:15;10.32;;;4.78;;
72939;SDS011;61094;51.154;13.570;2023-03-01T02:41:20;15.35;;;6.40;;
72939;SDS011;61094;51.154;13.570;2023-03-01T02:43:24;12.35;;;6.47;;
72939;SDS011;61094;51.154;13.570;2023-03-01T02:45:31;16.88;;;6.55;;
72939;SDS011;61094;51.154;13.570;2023-03-01T02:47:33;12.30;;;5.10;;
72939;SDS011;61094;51.154;13.570;2023-03-01T02:49:36;12.00;;;6.72;;
72939;SDS011;61094;51.154;13.570;2023-03-01T02:51:42;15.35;;;5.75;;
72939;SDS011;61094;51.154;13.570;2023-03-01T02:53:52;14.27;;;5.80;;
72939;SDS011;61094;51.154;13.570;2023-03-01T02:56:04;20.27;;;6.90;;
72939;SDS011;61094;51.154;13.570;2023-03-01T02:58:13;13.00;;;5.78;;
72939;SDS011;61094;51.154;13.570;2023-03-01T03:00:16;17.05;;;7.10;;
72939;SDS011;61094;51.154;13.570;2023-03-01T03:02:23;15.07;;;5.68;;
72939;SDS011;61094;51.154;13.570;2023-03-01T03:04:39;9.95;;;5.45;;
72939;SDS011;61094;51.154;13.570;2023-03-01T03:06:42;11.02;;;6.20;;
72939;SDS011;61094;51.154;13.570;2023-03-01T03:08:44;14.30;;;6.13;;
72939;SDS011;61094;51.154;13.570;2023-03-01T03:10:46;14.13;;;5.72;;
72939;SDS011;61094;51.154;13.570;2023-03-01T03:12:48;15.50;;;6.40;;
72939;SDS011;61094;51.154;13.570;2023-03-01T03:14:51;17.83;;;6.68;;
72939;SDS011;61094;51.154;13.570;2023-03-01T03:16:53;15.35;;;6.20;;
72939;SDS011;61094;51.154;13.570;2023-03-01T03:18:56;15.70;;;7.00;;
72939;SDS011;61094;51.154;13.570;2023-03-01T03:21:07;15.55;;;6.53;;
72939;SDS011;61094;51.154;13.570;2023-03-01T03:23:10;12.75;;;6.60;;
72939;SDS011;61094;51.154;13.570;2023-03-01T03:25:12;15.32;;;6.90;;
72939;SDS011;61094;51.154;13.570;2023-03-01T03:27:13;11.00;;;5.63;;
72939;SDS011;61094;51.154;13.570;2023-03-01T03:29:15;12.30;;;5.60;;
72939;SDS011;61094;51.154;13.570;2023-03-01T03:31:17;12.70;;;5.53;;
72939;SDS011;61094;51.154;13.570;2023-03-01T03:33:19;13.48;;;5.50;;
72939;SDS011;61094;51.154;13.570;2023-03-01T03:35:22;8.00;;;4.07;;
72939;SDS011;61094;51.154;13.570;2023-03-01T03:37:25;14.65;;;6.28;;
72939;SDS011;61094;51.154;13.570;2023-03-01T03:39:44;12.77;;;5.15;;
72939;SDS011;61094;51.154;13.570;2023-03-01T03:41:46;18.55;;;7.45;;
72939;SDS011;61094;51.154;13.570;2023-03-01T03:43:48;15.75;;;6.75;;
72939;SDS011;61094;51.154;13.570;2023-03-01T03:45:50;10.60;;;4.70;;
72939;SDS011;61094;51.154;13.570;2023-03-01T03:47:52;13.27;;;5.40;;
72939;SDS011;61094;51.154;13.570;2023-03-01T03:49:54;12.52;;;5.50;;
72939;SDS011;61094;51.154;13.570;2023-03-01T03:51:57;12.07;;;6.65;;
72939;SDS011;61094;51.154;13.570;2023-03-01T03:53:58;12.05;;;4.68;;
72939;SDS011;61094;51.154;13.570;2023-03-01T03:56:00;6.82;;;3.83;;
72939;SDS011;61094;51.154;13.570;2023-03-01T03:58:02;5.22;;;3.10;;
72939;SDS011;61094;51.154;13.570;2023-03-01T04:00:07;9.77;;;4.18;;
72939;SDS011;61094;51.154;13.570;2023-03-01T04:02:12;13.23;;;5.53;;
72939;SDS011;61094;51.154;13.570;2023-03-01T04:04:22;12.15;;;5.18;;
72939;SDS011;61094;51.154;13.570;2023-03-01T04:06:23;17.70;;;5.72;;
72939;SDS011;61094;51.154;13.570;2023-03-01T04:08:26;19.83;;;6.63;;
72939;SDS011;61094;51.154;13.570;2023-03-01T04:10:29;8.38;;;4.03;;
72939;SDS011;61094;51.154;13.570;2023-03-01T04:12:32;7.15;;;3.50;;
72939;SDS011;61094;51.154;13.570;2023-03-01T04:14:34;9.48;;;4.70;;
72939;SDS011;61094;51.154;13.570;2023-03-01T04:16:36;17.98;;;6.53;;
72939;SDS011;61094;51.154;13.570;2023-03-01T04:18:38;10.63;;;4.57;;
72939;SDS011;61094;51.154;13.570;2023-03-01T04:20:40;9.18;;;5.10;;
72939;SDS011;61094;51.154;13.570;2023-03-01T04:22:42;20.33;;;6.47;;
72939;SDS011;61094;51.154;13.570;2023-03-01T04:24:48;15.13;;;6.20;;
72939;SDS011;61094;51.154;13.570;2023-03-01T04:26:49;15.00;;;6.47;;
72939;SDS011;61094;51.154;13.570;2023-03-01T04:28:51;17.67;;;7.15;;
72939;SDS011;61094;51.154;13.570;2023-03-01T04:30:53;12.50;;;6.75;;
72939;SDS011;61094;51.154;13.570;2023-03-01T04:32:55;12.20;;;5.05;;
72939;SDS011;61094;51.154;13.570;2023-03-01T04:34:57;14.00;;;5.13;;
72939;SDS011;61094;51.154;13.570;2023-03-01T04:36:59;11.43;;;5.55;;
72939;SDS011;61094;51.154;13.570;2023-03-01T04:39:00;13.73;;;5.28;;
72939;SDS011;61094;51.154;13.570;2023-03-01T04:41:13;12.45;;;5.93;;
72939;SDS011;61094;51.154;13.570;2023-03-01T04:43:16;8.45;;;5.18;;
72939;SDS011;61094;51.154;13.570;2023-03-01T04:45:18;11.20;;;4.82;;
72939;SDS011;61094;51.154;13.570;2023-03-01T04:47:20;15.98;;;4.70;;
72939;SDS011;61094;51.154;13.570;2023-03-01T04:49:22;16.95;;;6.93;;
72939;SDS011;61094;51.154;13.570;2023-03-01T04:51:23;13.75;;;6.57;;
72939;SDS011;61094;51.154;13.570;2023-03-01T04:53:25;12.13;;;6.50;;
72939;SDS011;61094;51.154;13.570;2023-03-01T04:55:27;10.65;;;5.68;;
72939;SDS011;61094;51.154;13.570;2023-03-01T04:57:31;10.50;;;5.40;;
72939;SDS011;61094;51.154;13.570;2023-03-01T04:59:33;14.48;;;5.07;;
72939;SDS011;61094;51.154;13.570;2023-03-01T05:01:36;15.68;;;5.13;;
72939;SDS011;61094;51.154;13.570;2023-03-01T05:03:37;13.40;;;4.75;;
72939;SDS011;61094;51.154;13.570;2023-03-01T05:05:39;7.65;;;3.35;;
72939;SDS011;61094;51.154;13.570;2023-03-01T05:07:41;6.80;;;3.45;;
72939;SDS011;61094;51.154;13.570;2023-03-01T05:09:42;31.88;;;13.80;;
72939;SDS011;61094;51.154;13.570;2023-03-01T05:11:45;36.38;;;17.38;;
72939;SDS011;61094;51.154;13.570;2023-03-01T05:13:48;40.20;;;18.20;;
72939;SDS011;61094;51.154;13.570;2023-03-01T05:15:55;32.35;;;8.73;;
72939;SDS011;61094;51.154;13.570;2023-03-01T05:17:58;17.30;;;5.75;;
72939;SDS011;61094;51.154;13.570;2023-03-01T05:20:01;11.57;;;4.00;;
72939;SDS011;61094;51.154;13.570;2023-03-01T05:22:06;14.52;;;5.43;;
72939;SDS011;61094;51.154;13.570;2023-03-01T05:24:08;6.90;;;3.47;;
72939;SDS011;61094;51.154;13.570;2023-03-01T05:26:11;12.05;;;3.55;;
72939;SDS011;61094;51.154;13.570;2023-03-01T05:28:13;12.00;;;6.53;;
72939;SDS011;61094;51.154;13.570;2023-03-01T05:30:19;8.00;;;4.00;;
72939;SDS011;61094;51.154;13.570;2023-03-01T05:32:21;7.03;;;2.97;;
72939;SDS011;61094;51.154;13.570;2023-03-01T05:34:23;8.90;;;4.30;;
72939;SDS011;61094;51.154;13.570;2023-03-01T05:36:25;14.05;;;6.05;;
72939;SDS011;61094;51.154;13.570;2023-03-01T05:38:27;14.60;;;6.10;;
72939;SDS011;61094;51.154;13.570;2023-03-01T05:40:29;10.32;;;5.07;;
72939;SDS011;61094;51.154;13.570;2023-03-01T05:42:30;19.60;;;7.15;;
72939;SDS011;61094;51.154;13.570;2023-03-01T05:44:32;16.25;;;5.95;;
72939;SDS011;61094;51.154;13.570;2023-03-01T05:46:35;10.20;;;4.03;;
72939;SDS011;61094;51.154;13.570;2023-03-01T05:48:36;14.98;;;6.20;;
72939;SDS011;61094;51.154;13.570;2023-03-01T05:50:39;12.45;;;3.97;;
72939;SDS011;61094;51.154;13.570;2023-03-01T05:52:42;60.88;;;28.13;;
72939;SDS011;61094;51.154;13.570;2023-03-01T05:54:44;61.53;;;27.70;;
72939;SDS011;61094;51.154;13.570;2023-03-01T05:56:46;14.93;;;8.10;;
72939;SDS011;61094;51.154;13.570;2023-03-01T05:58:47;18.02;;;7.22;;
72939;SDS011;61094;51.154;13.570;2023-03-01T06:00:50;13.23;;;6.20;;
72939;SDS011;61094;51.154;13.570;2023-03-01T06:02:54;15.20;;;5.90;;
72939;SDS011;61094;51.154;13.570;2023-03-01T06:04:56;12.75;;;6.18;;
72939;SDS011;61094;51.154;13.570;2023-03-01T06:06:58;16.83;;;6.10;;
72939;SDS011;61094;51.154;13.570;2023-03-01T06:08:59;9.32;;;4.90;;
72939;SDS011;61094;51.154;13.570;2023-03-01T06:11:01;16.00;;;5.70;;
72939;SDS011;61094;51.154;13.570;2023-03-01T06:13:03;11.75;;;4.80;;
72939;SDS011;61094;51.154;13.570;2023-03-01T06:15:05;8.98;;;3.35;;
72939;SDS011;61094;51.154;13.570;2023-03-01T06:17:09;9.70;;;4.95;;
72939;SDS011;61094;51.154;13.570;2023-03-01T06:19:12;6.70;;;2.78;;
72939;SDS011;61094;51.154;13.570;2023-03-01T06:21:14;10.80;;;4.18;;
72939;SDS011;61094;51.154;13.570;2023-03-01T06:23:15;2.80;;;1.65;;
72939;SDS011;61094;51.154;13.570;2023-03-01T06:25:19;15.15;;;4.50;;
72939;SDS011;61094;51.154;13.570;2023-03-01T06:27:21;14.18;;;5.82;;
72939;SDS011;61094;51.154;13.570;2023-03-01T06:29:23;27.27;;;12.52;;
72939;SDS011;61094;51.154;13.570;2023-03-01T06:31:25;22.65;;;7.55;;
72939;SDS011;61094;51.154;13.570;2023-03-01T06:33:26;12.85;;;6.85;;
72939;SDS011;61094;51.154;13.570;2023-03-01T06:35:29;17.38;;;7.80;;
72939;SDS011;61094;51.154;13.570;2023-03-01T06:37:31;14.65;;;5.32;;
72939;SDS011;61094;51.154;13.570;2023-03-01T06:39:35;11.05;;;4.13;;
72939;SDS011;61094;51.154;13.570;2023-03-01T06:41:37;12.23;;;4.65;;
72939;SDS011;61094;51.154;13.570;2023-03-01T06:43:38;8.93;;;4.45;;
72939;SDS011;61094;51.154;13.570;2023-03-01T06:45:40;13.35;;;4.47;;
72939;SDS011;61094;51.154;13.570;2023-03-01T06:47:43;9.85;;;5.22;;
72939;SDS011;61094;51.154;13.570;2023-03-01T06:49:44;13.55;;;5.07;;
72939;SDS011;61094;51.154;13.570;2023-03-01T06:51:47;17.83;;;7.25;;
72939;SDS011;61094;51.154;13.570;2023-03-01T06:53:49;9.23;;;3.65;;
72939;SDS011;61094;51.154;13.570;2023-03-01T06:55:53;9.48;;;2.90;;
72939;SDS011;61094;51.154;13.570;2023-03-01T06:57:55;7.43;;;3.75;;
72939;SDS011;61094;51.154;13.570;2023-03-01T06:59:57;18.27;;;9.88;;
72939;SDS011;61094;51.154;13.570;2023-03-01T07:01:59;25.02;;;10.55;;
72939;SDS011;61094;51.154;13.570;2023-03-01T07:04:00;17.00;;;6.10;;
72939;SDS011;61094;51.154;13.570;2023-03-01T07:06:02;22.55;;;8.20;;
72939;SDS011;61094;51.154;13.570;2023-03-01T07:08:05;8.13;;;4.18;;
72939;SDS011;61094;51.154;13.570;2023-03-01T07:10:07;14.55;;;7.20;;
72939;SDS011;61094;51.154;13.570;2023-03-01T07:12:11;12.20;;;4.30;;
72939;SDS011;61094;51.154;13.570;2023-03-01T07:14:13;10.80;;;6.53;;
72939;SDS011;61094;51.154;13.570;2023-03-01T07:16:15;11.95;;;5.07;;
72939;SDS011;61094;51.154;13.570;2023-03-01T07:18:16;15.05;;;7.15;;
72939;SDS011;61094;51.154;13.570;2023-03-01T07:20:18;11.77;;;5.53;;
72939;SDS011;61094;51.154;13.570;2023-03-01T07:22:24;20.13;;;7.22;;
72939;SDS011;61094;51.154;13.570;2023-03-01T07:24:27;16.60;;;8.07;;
72939;SDS011;61094;51.154;13.570;2023-03-01T07:26:29;18.73;;;6.82;;
72939;SDS011;61094;51.154;13.570;2023-03-01T07:28:31;15.35;;;7.22;;
72939;SDS011;61094;51.154;13.570;2023-03-01T07:30:35;7.50;;;3.20;;
72939;SDS011;61094;51.154;13.570;2023-03-01T07:32:37;8.10;;;4.18;;
72939;SDS011;61094;51.154;13.570;2023-03-01T07:34:39;12.00;;;4.90;;
72939;SDS011;61094;51.154;13.570;2023-03-01T07:36:40;8.88;;;4.07;;
72939;SDS011;61094;51.154;13.570;2023-03-01T07:38:43;15.23;;;7.07;;
72939;SDS011;61094;51.154;13.570;2023-03-01T07:40:46;9.32;;;5.00;;
72939;SDS011;61094;51.154;13.570;2023-03-01T07:42:47;11.77;;;4.85;;
72939;SDS011;61094;51.154;13.570;2023-03-01T07:44:49;16.05;;;6.63;;
72939;SDS011;61094;51.154;13.570;2023-03-01T07:46:51;16.08;;;5.43;;
72939;SDS011;61094;51.154;13.570;2023-03-01T07:48:56;26.55;;;11.38;;
72939;SDS011;61094;51.154;13.570;2023-03-01T07:50:58;17.75;;;8.35;;
72939;SDS011;61094;51.154;13.570;2023-03-01T07:53:00;11.70;;;5.15;;
72939;SDS011;61094;51.154;13.570;2023-03-01T07:55:02;19.33;;;5.55;;
72939;SDS011;61094;51.154;13.570;2023-03-01T07:57:06;15.55;;;7.32;;
72939;SDS011;61094;51.154;13.570;2023-03-01T07:59:07;13.73;;;5.82;;
72939;SDS011;61094;51.154;13.570;2023-03-01T08:01:10;18.10;;;8.45;;
72939;SDS011;61094;51.154;13.570;2023-03-01T08:03:13;19.77;;;8.05;;
72939;SDS011;61094;51.154;13.570;2023-03-01T08:05:15;16.80;;;6.90;;
72939;SDS011;61094;51.154;13.570;2023-03-01T08:07:17;14.90;;;6.88;;
72939;SDS011;61094;51.154;13.570;2023-03-01T08:09:18;19.10;;;7.38;;
72939;SDS011;61094;51.154;13.570;2023-03-01T08:11:20;21.38;;;8.73;;
72939;SDS011;61094;51.154;13.570;2023-03-01T08:13:24;15.27;;;6.05;;
72939;SDS011;61094;51.154;13.570;2023-03-01T08:15:26;26.02;;;9.27;;
72939;SDS011;61094;51.154;13.570;2023-03-01T08:17:28;21.63;;;9.48;;
72939;SDS011;61094;51.154;13.570;2023-03-01T08:19:29;23.00;;;9.30;;
72939;SDS011;61094;51.154;13.570;2023-03-01T08:21:31;14.43;;;6.35;;
72939;SDS011;61094;51.154;13.570;2023-03-01T08:23:34;17.77;;;7.68;;
72939;SDS011;61094;51.154;13.570;2023-03-01T08:25:36;22.77;;;8.70;;
72939;SDS011;61094;51.154;13.570;2023-03-01T08:27:38;16.60;;;6.75;;
72939;SDS011;61094;51.154;13.570;2023-03-01T08:29:41;19.98;;;9.13;;
72939;SDS011;61094;51.154;13.570;2023-03-01T08:31:43;19.10;;;9.18;;
72939;SDS011;61094;51.154;13.570;2023-03-01T08:33:44;22.17;;;9.18;;
72939;SDS011;61094;51.154;13.570;2023-03-01T08:35:50;24.55;;;10.23;;
72939;SDS011;61094;51.154;13.570;2023-03-01T08:37:52;28.60;;;11.07;;
72939;SDS011;61094;51.154;13.570;2023-03-01T08:39:53;20.02;;;9.20;;
72939;SDS011;61094;51.154;13.570;2023-03-01T08:41:55;19.55;;;8.10;;
72939;SDS011;61094;51.154;13.570;2023-03-01T08:43:58;17.02;;;7.97;;
72939;SDS011;61094;51.154;13.570;2023-03-01T08:46:01;19.70;;;9.95;;
72939;SDS011;61094;51.154;13.570;2023-03-01T08:48:03;18.25;;;8.10;;
72939;SDS011;61094;51.154;13.570;2023-03-01T08:50:05;19.33;;;10.05;;
72939;SDS011;61094;51.154;13.570;2023-03-01T08:52:07;23.92;;;11.63;;
72939;SDS011;61094;51.154;13.570;2023-03-01T08:54:09;25.77;;;12.63;;
72939;SDS011;61094;51.154;13.570;2023-03-01T08:56:13;19.38;;;9.90;;
72939;SDS011;61094;51.154;13.570;2023-03-01T08:58:15;27.75;;;11.60;;
72939;SDS011;61094;51.154;13.570;2023-03-01T09:00:17;24.35;;;11.20;;
72939;SDS011;61094;51.154;13.570;2023-03-01T09:02:20;23.40;;;10.15;;
72939;SDS011;61094;51.154;13.570;2023-03-01T09:04:22;20.35;;;10.90;;
72939;SDS011;61094;51.154;13.570;2023-03-01T09:06:24;23.95;;;11.80;;
72939;SDS011;61094;51.154;13.570;2023-03-01T09:08:26;26.20;;;11.65;;
72939;SDS011;61094;51.154;13.570;2023-03-01T09:10:27;24.48;;;10.63;;
72939;SDS011;61094;51.154;13.570;2023-03-01T09:12:29;25.83;;;13.25;;
72939;SDS011;61094;51.154;13.570;2023-03-01T09:14:30;24.35;;;12.43;;
72939;SDS011;61094;51.154;13.570;2023-03-01T09:16:32;27.58;;;13.85;;
72939;SDS011;61094;51.154;13.570;2023-03-01T09:18:37;23.80;;;11.30;;
72939;SDS011;61094;51.154;13.570;2023-03-01T09:20:38;23.80;;;10.90;;
72939;SDS011;61094;51.154;13.570;2023-03-01T09:22:40;24.67;;;10.50;;
72939;SDS011;61094;51.154;13.570;2023-03-01T09:24:42;73.15;;;31.83;;
72939;SDS011;61094;51.154;13.570;2023-03-01T09:26:43;28.73;;;13.80;;
72939;SDS011;61094;51.154;13.570;2023-03-01T09:28:46;25.35;;;12.35;;
72939;SDS011;61094;51.154;13.570;2023-03-01T09:30:48;49.30;;;22.77;;
72939;SDS011;61094;51.154;13.570;2023-03-01T09:32:49;33.80;;;16.83;;
72939;SDS011;61094;51.154;13.570;2023-03-01T09:34:53;57.08;;;23.77;;
72939;SDS011;61094;51.154;13.570;2023-03-01T09:37:07;22.30;;;10.95;;
72939;SDS011;61094;51.154;13.570;2023-03-01T09:39:08;22.40;;;10.90;;
72939;SDS011;61094;51.154;13.570;2023-03-01T09:41:11;24.45;;;11.00;;
72939;SDS011;61094;51.154;13.570;2023-03-01T09:43:29;21.48;;;10.93;;
72939;SDS011;61094;51.154;13.570;2023-03-01T09:45:35;22.10;;;11.00;;
72939;SDS011;61094;51.154;13.570;2023-03-01T09:47:40;25.27;;;13.07;;
72939;SDS011;61094;51.154;13.570;2023-03-01T09:49:42;22.58;;;12.40;;
72939;SDS011;61094;51.154;13.570;2023-03-01T09:51:53;22.23;;;11.55;;
72939;SDS011;61094;51.154;13.570;2023-03-01T09:53:57;20.63;;;9.15;;
72939;SDS011;61094;51.154;13.570;2023-03-01T09:56:02;23.67;;;10.30;;
72939;SDS011;61094;51.154;13.570;2023-03-01T09:58:15;39.08;;;16.17;;
72939;SDS011;61094;51.154;13.570;2023-03-01T10:00:38;21.02;;;10.60;;
72939;SDS011;61094;51.154;13.570;2023-03-01T10:02:43;19.55;;;10.20;;
72939;SDS011;61094;51.154;13.570;2023-03-01T10:04:48;21.40;;;10.88;;
72939;SDS011;61094;51.154;13.570;2023-03-01T10:06:55;19.80;;;9.90;;
72939;SDS011;61094;51.154;13.570;2023-03-01T10:09:07;20.02;;;9.57;;
72939;SDS011;61094;51.154;13.570;2023-03-01T10:11:17;18.17;;;9.85;;
72939;SDS011;61094;51.154;13.570;2023-03-01T10:13:23;21.65;;;9.75;;
72939;SDS011;61094;51.154;13.570;2023-03-01T10:15:32;20.95;;;9.63;;
72939;SDS011;61094;51.154;13.570;2023-03-01T10:17:37;18.58;;;9.35;;
72939;SDS011;61094;51.154;13.570;2023-03-01T10:19:43;20.38;;;10.00;;
72939;SDS011;61094;51.154;13.570;2023-03-01T10:21:46;21.10;;;9.68;;
72939;SDS011;61094;51.154;13.570;2023-03-01T10:23:52;20.95;;;9.40;;
72939;SDS011;61094;51.154;13.570;2023-03-01T10:26:02;22.10;;;9.07;;
72939;SDS011;61094;51.154;13.570;2023-03-01T10:28:12;23.50;;;9.43;;
72939;SDS011;61094;51.154;13.570;2023-03-01T10:30:19;18.15;;;9.68;;
72939;SDS011;61094;51.154;13.570;2023-03-01T10:32:23;21.15;;;10.15;;
72939;SDS011;61094;51.154;13.570;2023-03-01T10:34:29;18.73;;;9.35;;
72939;SDS011;61094;51.154;13.570;2023-03-01T10:36:33;20.27;;;10.10;;
72939;SDS011;61094;51.154;13.570;2023-03-01T10:38:47;19.98;;;9.20;;
72939;SDS011;61094;51.154;13.570;2023-03-01T10:40:54;19.10;;;10.05;;
72939;SDS011;61094;51.154;13.570;2023-03-01T10:42:59;18.15;;;8.88;;
72939;SDS011;61094;51.154;13.570;2023-03-01T10:45:32;21.80;;;10.45;;
72939;SDS011;61094;51.154;13.570;2023-03-01T10:47:36;41.70;;;21.58;;
72939;SDS011;61094;51.154;13.570;2023-03-01T10:49:38;26.33;;;13.02;;
72939;SDS011;61094;51.154;13.570;2023-03-01T10:51:40;21.33;;;10.02;;
72939;SDS011;61094;51.154;13.570;2023-03-01T10:53:43;20.80;;;9.52;;
72939;SDS011;61094;51.154;13.570;2023-03-01T10:55:57;17.55;;;9.18;;
72939;SDS011;61094;51.154;13.570;2023-03-01T10:58:16;20.02;;;9.88;;
72939;SDS011;61094;51.154;13.570;2023-03-01T11:00:21;17.13;;;9.10;;
72939;SDS011;61094;51.154;13.570;2023-03-01T11:02:26;19.45;;;8.90;;
72939;SDS011;61094;51.154;13.570;2023-03-01T11:04:29;19.00;;;9.35;;
72939;SDS011;61094;51.154;13.570;2023-03-01T11:06:31;17.75;;;9.40;;
72939;SDS011;61094;51.154;13.570;2023-03-01T11:08:35;17.75;;;9.00;;
72939;SDS011;61094;51.154;13.570;2023-03-01T11:10:42;17.38;;;8.55;;
72939;SDS011;61094;51.154;13.570;2023-03-01T11:12:45;16.73;;;8.10;;
72939;SDS011;61094;51.154;13.570;2023-03-01T11:14:47;17.70;;;8.40;;
72939;SDS011;61094;51.154;13.570;2023-03-01T11:16:57;17.67;;;9.02;;
72939;SDS011;61094;51.154;13.570;2023-03-01T11:21:14;16.73;;;8.63;;
72939;SDS011;61094;51.154;13.570;2023-03-01T11:23:17;15.43;;;8.32;;
72939;SDS011;61094;51.154;13.570;2023-03-01T11:25:20;17.27;;;8.05;;
72939;SDS011;61094;51.154;13.570;2023-03-01T11:27:26;15.55;;;8.02;;
72939;SDS011;61094;51.154;13.570;2023-03-01T11:29:35;17.23;;;8.32;;
72939;SDS011;61094;51.154;13.570;2023-03-01T11:31:40;15.43;;;6.90;;
72939;SDS011;61094;51.154;13.570;2023-03-01T11:33:44;16.25;;;7.57;;
72939;SDS011;61094;51.154;13.570;2023-03-01T11:35:53;13.82;;;6.20;;
72939;SDS011;61094;51.154;13.570;2023-03-01T11:38:03;13.57;;;6.43;;
72939;SDS011;61094;51.154;13.570;2023-03-01T11:40:20;12.35;;;6.07;;
72939;SDS011;61094;51.154;13.570;2023-03-01T11:42:27;11.45;;;5.78;;
72939;SDS011;61094;51.154;13.570;2023-03-01T11:44:36;13.25;;;6.18;;
72939;SDS011;61094;51.154;13.570;2023-03-01T11:46:41;12.63;;;5.78;;
72939;SDS011;61094;51.154;13.570;2023-03-01T11:51:24;14.63;;;6.32;;
72939;SDS011;61094;51.154;13.570;2023-03-01T11:53:51;12.73;;;5.72;;
72939;SDS011;61094;51.154;13.570;2023-03-01T11:56:05;12.07;;;5.63;;
72939;SDS011;61094;51.154;13.570;2023-03-01T11:58:19;13.65;;;5.72;;
72939;SDS011;61094;51.154;13.570;2023-03-01T12:00:41;12.18;;;5.45;;
72939;SDS011;61094;51.154;13.570;2023-03-01T12:05:28;11.02;;;4.28;;
72939;SDS011;61094;51.154;13.570;2023-03-01T12:07:53;14.23;;;5.70;;
72939;SDS011;61094;51.154;13.570;2023-03-01T12:12:29;11.52;;;4.30;;
72939;SDS011;61094;51.154;13.570;2023-03-01T12:14:48;8.25;;;3.80;;
72939;SDS011;61094;51.154;13.570;2023-03-01T12:17:05;13.40;;;4.70;;
72939;SDS011;61094;51.154;13.570;2023-03-01T12:19:30;12.32;;;4.60;;